Lan Bao Hai — VRPA8 — position and weather

sailwx.info

Track history (hours):
 
Tides and Currents Weather Stations Pressure Air Temp Water Temp Dewpoint Dewpoint Depression Visibility Wind Speed Wind Dir Waves Ship Positions

Lan Bao Hai

Last reported at 2018-Jun-14 08:42 UTC. Time now 2018-Jun-20 03:58 UTC.
Position N 37°02' E 002°53'.

Length 180 m; draft 10.6 m.

Type: Cargo ship. MMSI: 477713300.

Date/timePositionNaut miles runAvg speedWind from/ knotsBaromVisibWave heightAir tempDewpointWater temp
2018-Jun-14 08:42N 37°02' E 002°53'213.0
2018-Jun-14 08:30N 37°01' E 002°50'1913.4
2018-Jun-14 07:07N 36°58' E 002°27'213.6
2018-Jun-14 06:56N 36°58' E 002°24'2814.0
2018-Jun-14 04:54N 36°53' E 001°49'614.2
2018-Jun-14 04:30N 36°52' E 001°42'814.4
2018-Jun-14 03:58N 36°51' E 001°33'714.3
2018-Jun-14 03:30N 36°50' E 001°25'714.2
2018-Jun-14 03:00N 36°49' E 001°16'714.1
2018-Jun-14 02:30N 36°48' E 001°07'714.0
2018-Jun-14 02:01N 36°47' E 000°59'713.9
2018-Jun-14 01:30N 36°45' E 000°50'713.7
2018-Jun-14 01:00N 36°44' E 000°42'713.6
2018-Jun-14 00:30N 36°43' E 000°33'713.4
2018-Jun-14 00:00N 36°42' E 000°25'713.4
2018-Jun-13 23:30N 36°41' E 000°17'713.5
2018-Jun-13 23:00N 36°40' E 000°08'1913.4
2018-Jun-13 21:35N 36°37' W 000°15'113.0
2018-Jun-13 21:30N 36°37' W 000°17'612.9
2018-Jun-13 21:00N 36°36' W 000°24'713.0
2018-Jun-13 20:30N 36°35' W 000°32'713.2
2018-Jun-13 20:00N 36°33' W 000°40'713.3
2018-Jun-13 19:29N 36°32' W 000°49'713.4
2018-Jun-13 18:57N 36°31' W 000°58'20613.6
2018-Jun-13 03:50N 36°01' W 005°10'516.3
2018-Jun-13 03:30N 36°02' W 005°17'611.7
2018-Jun-13 03:01N 36°06' W 005°23'3 5.7
2018-Jun-13 02:31N 36°08' W 005°23'1 1.3
2018-Jun-13 01:55N 36°08' W 005°22'0 0.1
2018-Jun-13 01:28N 36°08' W 005°22'0 0.1
2018-Jun-13 00:58N 36°08' W 005°22'0 0.1
2018-Jun-13 00:30N 36°08' W 005°22'0 0.1
2018-Jun-13 00:00N 36°08' W 005°22'0 0.0
2018-Jun-12 20:44N 36°08' W 005°22'0 0.0
2018-Jun-12 20:29N 36°08' W 005°22'0 0.0
2018-Jun-12 19:57N 36°08' W 005°22'2 1.1
2018-Jun-12 18:20N 36°06' W 005°22'1 4.2
2018-Jun-12 18:00N 36°05' W 005°21'4 7.9
2018-Jun-12 17:30N 36°02' W 005°17'3 6.0
2018-Jun-12 17:00N 36°00' W 005°20'510.6
2018-Jun-12 16:30N 35°58' W 005°26'  
2018-Jun-09 21:49N 36°27' W 023°30'713.2
2018-Jun-09 21:19N 36°27' W 023°38'513.0
2018-Jun-09 20:56N 36°27' W 023°44'613.1
2018-Jun-09 20:30N 36°27' W 023°51'713.1
2018-Jun-09 20:00N 36°28' W 023°60'612.7
2018-Jun-09 19:31N 36°28' W 024°07'612.6
2018-Jun-09 19:01N 36°28' W 024°15'612.7
2018-Jun-09 18:30N 36°29' W 024°23'612.4
2018-Jun-09 18:00N 36°29' W 024°31'612.4
2018-Jun-09 17:30N 36°29' W 024°39'612.6
2018-Jun-09 17:00N 36°29' W 024°46'612.5
2018-Jun-09 16:30N 36°30' W 024°54'612.4
2018-Jun-09 16:00N 36°30' W 025°02'1312.7
2018-Jun-09 15:00N 36°31' W 025°18'612.4
2018-Jun-09 14:30N 36°31' W 025°25'612.5
2018-Jun-09 14:00N 36°32' W 025°33'612.4
2018-Jun-09 13:30N 36°33' W 025°41'612.6
2018-Jun-09 13:00N 36°33' W 025°49'612.7
2018-Jun-09 12:30N 36°33' W 025°57'612.7
2018-Jun-09 12:00N 36°34' W 026°05'812.7
2018-Jun-09 11:24N 36°35' W 026°14'2812.8
2018-Jun-09 09:13N 36°37' W 026°49'413.0
2018-Jun-09 08:56N 36°37' W 026°53'613.1
2018-Jun-09 08:30N 36°37' W 027°00'713.1
2018-Jun-09 08:00N 36°38' W 027°08'1212.8
2018-Jun-09 07:04N 36°39' W 027°23'113.2
2018-Jun-09 06:58N 36°39' W 027°25'612.9
2018-Jun-09 06:29N 36°39' W 027°33'612.8
2018-Jun-09 06:00N 36°40' W 027°40'1313.0
2018-Jun-09 04:59N 36°41' W 027°57'1213.2
2018-Jun-09 04:03N 36°42' W 028°12'113.1
2018-Jun-09 03:57N 36°42' W 028°14'612.9
2018-Jun-09 03:30N 36°42' W 028°21'712.9
2018-Jun-09 02:56N 36°43' W 028°30'612.8
2018-Jun-09 02:30N 36°43' W 028°37'713.0
2018-Jun-09 01:59N 36°44' W 028°45'713.1
2018-Jun-09 01:28N 36°44' W 028°54'713.1
2018-Jun-09 00:58N 36°45' W 029°02'613.4
2018-Jun-09 00:30N 36°45' W 029°10'813.6
2018-Jun-08 23:57N 36°46' W 029°19'613.4
2018-Jun-08 23:29N 36°46' W 029°27'713.6
2018-Jun-08 23:00N 36°47' W 029°35'713.3
2018-Jun-08 22:31N 36°47' W 029°43'813.2
2018-Jun-08 21:54N 36°48' W 029°53'513.5
2018-Jun-08 21:30N 36°48' W 029°60'713.5
2018-Jun-08 21:00N 36°49' W 030°08'2013.4
2018-Jun-08 19:29N 36°50' W 030°33'612.9
2018-Jun-08 19:00N 36°51' W 030°41'713.0
2018-Jun-08 18:26N 36°51' W 030°51'613.2
2018-Jun-08 17:59N 36°52' W 030°58'613.2
2018-Jun-08 17:30N 36°52' W 031°06'1413.0
2018-Jun-08 16:27N 36°53' W 031°23'  
Track history (hours):
 
Tides and Currents Weather Stations Pressure Air Temp Water Temp Dewpoint Dewpoint Depression Visibility Wind Speed Wind Dir Waves Ship Positions

Lan Bao Hai

Last reported at 2018-Jun-14 08:42 UTC. Time now 2018-Jun-20 03:58 UTC.
Position N 37°02' E 002°53'.

Length 180 m; draft 10.6 m.

Type: Cargo ship. MMSI: 477713300.

Date/timePositionNaut miles runAvg speedWind from/ knotsBaromVisibWave heightAir tempDewpointWater temp
2018-Jun-14 08:42N 37°02' E 002°53'213.0
2018-Jun-14 08:30N 37°01' E 002°50'1913.4
2018-Jun-14 07:07N 36°58' E 002°27'213.6
2018-Jun-14 06:56N 36°58' E 002°24'2814.0
2018-Jun-14 04:54N 36°53' E 001°49'614.2
2018-Jun-14 04:30N 36°52' E 001°42'814.4
2018-Jun-14 03:58N 36°51' E 001°33'714.3
2018-Jun-14 03:30N 36°50' E 001°25'714.2
2018-Jun-14 03:00N 36°49' E 001°16'714.1
2018-Jun-14 02:30N 36°48' E 001°07'714.0
2018-Jun-14 02:01N 36°47' E 000°59'713.9
2018-Jun-14 01:30N 36°45' E 000°50'713.7
2018-Jun-14 01:00N 36°44' E 000°42'713.6
2018-Jun-14 00:30N 36°43' E 000°33'713.4
2018-Jun-14 00:00N 36°42' E 000°25'713.4
2018-Jun-13 23:30N 36°41' E 000°17'713.5
2018-Jun-13 23:00N 36°40' E 000°08'1913.4
2018-Jun-13 21:35N 36°37' W 000°15'113.0
2018-Jun-13 21:30N 36°37' W 000°17'612.9
2018-Jun-13 21:00N 36°36' W 000°24'713.0
2018-Jun-13 20:30N 36°35' W 000°32'713.2
2018-Jun-13 20:00N 36°33' W 000°40'713.3
2018-Jun-13 19:29N 36°32' W 000°49'713.4
2018-Jun-13 18:57N 36°31' W 000°58'20613.6
2018-Jun-13 03:50N 36°01' W 005°10'516.3
2018-Jun-13 03:30N 36°02' W 005°17'611.7
2018-Jun-13 03:01N 36°06' W 005°23'3 5.7
2018-Jun-13 02:31N 36°08' W 005°23'1 1.3
2018-Jun-13 01:55N 36°08' W 005°22'0 0.1
2018-Jun-13 01:28N 36°08' W 005°22'0 0.1
2018-Jun-13 00:58N 36°08' W 005°22'0 0.1
2018-Jun-13 00:30N 36°08' W 005°22'0 0.1
2018-Jun-13 00:00N 36°08' W 005°22'0 0.0
2018-Jun-12 20:44N 36°08' W 005°22'0 0.0
2018-Jun-12 20:29N 36°08' W 005°22'0 0.0
2018-Jun-12 19:57N 36°08' W 005°22'2 1.1
2018-Jun-12 18:20N 36°06' W 005°22'1 4.2
2018-Jun-12 18:00N 36°05' W 005°21'4 7.9
2018-Jun-12 17:30N 36°02' W 005°17'3 6.0
2018-Jun-12 17:00N 36°00' W 005°20'510.6
2018-Jun-12 16:30N 35°58' W 005°26'  
2018-Jun-09 21:49N 36°27' W 023°30'713.2
2018-Jun-09 21:19N 36°27' W 023°38'513.0
2018-Jun-09 20:56N 36°27' W 023°44'613.1
2018-Jun-09 20:30N 36°27' W 023°51'713.1
2018-Jun-09 20:00N 36°28' W 023°60'612.7
2018-Jun-09 19:31N 36°28' W 024°07'612.6
2018-Jun-09 19:01N 36°28' W 024°15'612.7
2018-Jun-09 18:30N 36°29' W 024°23'612.4
2018-Jun-09 18:00N 36°29' W 024°31'612.4
2018-Jun-09 17:30N 36°29' W 024°39'612.6
2018-Jun-09 17:00N 36°29' W 024°46'612.5
2018-Jun-09 16:30N 36°30' W 024°54'612.4
2018-Jun-09 16:00N 36°30' W 025°02'1312.7
2018-Jun-09 15:00N 36°31' W 025°18'612.4
2018-Jun-09 14:30N 36°31' W 025°25'612.5
2018-Jun-09 14:00N 36°32' W 025°33'612.4
2018-Jun-09 13:30N 36°33' W 025°41'612.6
2018-Jun-09 13:00N 36°33' W 025°49'612.7
2018-Jun-09 12:30N 36°33' W 025°57'612.7
2018-Jun-09 12:00N 36°34' W 026°05'812.7
2018-Jun-09 11:24N 36°35' W 026°14'2812.8
2018-Jun-09 09:13N 36°37' W 026°49'413.0
2018-Jun-09 08:56N 36°37' W 026°53'613.1
2018-Jun-09 08:30N 36°37' W 027°00'713.1
2018-Jun-09 08:00N 36°38' W 027°08'1212.8
2018-Jun-09 07:04N 36°39' W 027°23'113.2
2018-Jun-09 06:58N 36°39' W 027°25'612.9
2018-Jun-09 06:29N 36°39' W 027°33'612.8
2018-Jun-09 06:00N 36°40' W 027°40'1313.0
2018-Jun-09 04:59N 36°41' W 027°57'1213.2
2018-Jun-09 04:03N 36°42' W 028°12'113.1
2018-Jun-09 03:57N 36°42' W 028°14'612.9
2018-Jun-09 03:30N 36°42' W 028°21'712.9
2018-Jun-09 02:56N 36°43' W 028°30'612.8
2018-Jun-09 02:30N 36°43' W 028°37'713.0
2018-Jun-09 01:59N 36°44' W 028°45'713.1
2018-Jun-09 01:28N 36°44' W 028°54'713.1
2018-Jun-09 00:58N 36°45' W 029°02'613.4
2018-Jun-09 00:30N 36°45' W 029°10'813.6
2018-Jun-08 23:57N 36°46' W 029°19'613.4
2018-Jun-08 23:29N 36°46' W 029°27'713.6
2018-Jun-08 23:00N 36°47' W 029°35'713.3
2018-Jun-08 22:31N 36°47' W 029°43'813.2
2018-Jun-08 21:54N 36°48' W 029°53'513.5
2018-Jun-08 21:30N 36°48' W 029°60'713.5
2018-Jun-08 21:00N 36°49' W 030°08'2013.4
2018-Jun-08 19:29N 36°50' W 030°33'612.9
2018-Jun-08 19:00N 36°51' W 030°41'713.0
2018-Jun-08 18:26N 36°51' W 030°51'613.2
2018-Jun-08 17:59N 36°52' W 030°58'613.2
2018-Jun-08 17:30N 36°52' W 031°06'1413.0
2018-Jun-08 16:27N 36°53' W 031°23'  

Dump ship's entire track history